Crossmaglen, United Kingdom
Current Conditions -  °F | °C
As of 11:50 AM on Wednesday 28 Jan 2015 (Local Time) from EGAA Reporting Station
Scattered Clouds Scattered Clouds  
Wind Chill: 24°   Ceiling: Unl
Heat Index: 36°   Visibility: 6mi
Dew Point: 34°   Wind: 22mph
Humidity: 93%   Direction: 280°W
Pressure: 29.44"   Gusts: 35mph
Location:  54.08°N, 6.6°W
Report Text: EGAA 281150Z 28019G30KT 9999 SCT008CB SCT031 02/01 Q0997
Loading
Personal Weather Stations






























Interactive Weather Map New forecast layout! Learn more

10-Day Weather Forecast

Advertisements
Track Severe Weather on mobile